createdAt,value
2019-03-10T00:00:43.851Z,5.70
2019-03-10T00:06:48.551Z,5.70
2019-03-10T00:12:53.261Z,5.80
2019-03-10T00:18:57.829Z,5.90
2019-03-10T00:25:02.532Z,5.90
2019-03-10T00:31:07.215Z,6.10
2019-03-10T00:37:12.090Z,6.20
2019-03-10T00:43:42.716Z,6.30
2019-03-10T00:50:03.914Z,6.50
2019-03-10T00:56:08.555Z,6.70
2019-03-10T01:02:13.502Z,6.80
2019-03-10T01:08:18.192Z,6.90
2019-03-10T01:14:22.886Z,6.90
2019-03-10T01:20:27.892Z,7.00
2019-03-10T01:26:32.646Z,7.10
2019-03-10T01:32:44.941Z,7.10
2019-03-10T01:38:49.632Z,7.20
2019-03-10T01:44:54.354Z,7.20
2019-03-10T01:50:58.901Z,7.10
2019-03-10T01:57:03.505Z,7.10
2019-03-10T02:03:08.231Z,7.20
2019-03-10T02:09:12.945Z,7.20
2019-03-10T02:15:18.033Z,7.10
2019-03-10T02:21:22.757Z,7.20
2019-03-10T02:27:27.457Z,7.20
2019-03-10T02:33:32.203Z,7.30
2019-03-10T02:39:36.859Z,7.30
2019-03-10T02:45:41.885Z,7.30
2019-03-10T02:51:46.898Z,7.30
2019-03-10T02:57:52.035Z,7.30
2019-03-10T03:03:56.786Z,7.20
2019-03-10T03:10:01.940Z,7.20
2019-03-10T03:16:06.860Z,7.20
2019-03-10T03:22:11.576Z,7.10
2019-03-10T03:28:17.740Z,7.10
2019-03-10T03:34:22.672Z,7.10
2019-03-10T03:40:27.598Z,7.00
2019-03-10T03:46:32.393Z,7.00
2019-03-10T03:52:37.577Z,7.00
2019-03-10T03:58:43.486Z,7.00
2019-03-10T04:04:48.826Z,7.00
2019-03-10T04:10:53.437Z,7.00
2019-03-10T04:16:58.074Z,6.90
2019-03-10T04:23:02.709Z,6.90
2019-03-10T04:29:07.323Z,6.90
2019-03-10T04:35:12.127Z,6.90
2019-03-10T04:41:17.384Z,6.80
2019-03-10T04:47:21.935Z,6.90
2019-03-10T04:53:26.891Z,6.90
2019-03-10T04:59:31.528Z,6.90
2019-03-10T05:05:36.219Z,6.90
2019-03-10T05:11:40.862Z,7.00
2019-03-10T05:17:45.859Z,7.00
2019-03-10T05:23:50.801Z,6.90
2019-03-10T05:29:55.618Z,6.90
2019-03-10T05:36:00.355Z,6.80
2019-03-10T05:42:05.094Z,6.80
2019-03-10T05:48:09.970Z,6.70
2019-03-10T05:54:15.154Z,6.70
2019-03-10T06:00:19.800Z,6.60
2019-03-10T06:06:24.757Z,6.50
2019-03-10T06:12:29.331Z,6.40
2019-03-10T06:18:34.089Z,6.40
2019-03-10T06:24:38.957Z,6.30
2019-03-10T06:30:43.652Z,6.30
2019-03-10T06:36:48.541Z,6.30
2019-03-10T06:42:53.092Z,6.20
2019-03-10T06:48:57.650Z,6.30
2019-03-10T06:55:02.202Z,6.30
2019-03-10T07:01:06.817Z,6.40
2019-03-10T07:07:11.359Z,6.50
2019-03-10T07:13:16.174Z,6.60
2019-03-10T07:19:21.480Z,6.70
2019-03-10T07:25:26.098Z,6.80
2019-03-10T07:31:32.385Z,6.70
2019-03-10T07:37:45.159Z,6.60
2019-03-10T07:43:55.324Z,6.60
2019-03-10T07:50:01.591Z,6.50
2019-03-10T07:56:19.607Z,6.60
2019-03-10T08:02:25.805Z,6.60
2019-03-10T08:08:32.041Z,6.60
2019-03-10T08:14:42.065Z,6.60
2019-03-10T08:21:04.859Z,6.60
2019-03-10T08:27:16.945Z,6.70
2019-03-10T08:33:40.039Z,6.70
2019-03-10T08:39:55.258Z,6.70
2019-03-10T08:46:16.838Z,6.60
2019-03-10T08:52:35.161Z,6.70
2019-03-10T08:58:44.068Z,6.70
2019-03-10T09:04:53.096Z,6.80
2019-03-10T09:11:04.731Z,6.70
2019-03-10T09:17:11.025Z,6.50
2019-03-10T09:23:20.345Z,6.60
2019-03-10T09:29:32.084Z,6.60
2019-03-10T09:35:38.521Z,6.70
2019-03-10T09:41:44.965Z,6.70
2019-03-10T09:48:07.290Z,6.60
2019-03-10T09:54:31.796Z,6.80
2019-03-10T10:00:51.469Z,7.00
2019-03-10T10:07:06.455Z,6.90
2019-03-10T10:13:26.450Z,6.90
2019-03-10T10:19:30.904Z,6.90
2019-03-10T10:25:37.136Z,7.00
2019-03-10T10:31:59.577Z,7.10
2019-03-10T10:38:22.214Z,7.10
2019-03-10T10:44:28.500Z,7.00
2019-03-10T10:50:34.683Z,7.10
2019-03-10T10:56:40.982Z,7.10
2019-03-10T11:02:50.306Z,7.00
2019-03-10T11:09:03.099Z,6.90
2019-03-10T11:15:11.575Z,7.00
2019-03-10T11:21:17.908Z,7.10
2019-03-10T11:27:29.937Z,7.00
2019-03-10T11:33:40.255Z,7.10
2019-03-10T11:39:46.610Z,6.90
2019-03-10T11:45:58.680Z,6.70
2019-03-10T11:52:11.070Z,6.70
2019-03-10T11:58:33.942Z,6.50
2019-03-10T12:04:49.230Z,6.40
2019-03-10T12:10:53.977Z,6.40
2019-03-10T12:16:58.630Z,6.50
2019-03-10T12:23:03.206Z,6.70
2019-03-10T12:29:07.784Z,6.80
2019-03-10T12:35:12.500Z,6.90
2019-03-10T12:41:18.164Z,7.00
2019-03-10T12:47:22.786Z,7.10
2019-03-10T12:53:27.418Z,7.50
2019-03-10T12:59:32.130Z,8.00
2019-03-10T13:05:36.848Z,8.40
2019-03-10T13:11:41.479Z,8.60
2019-03-10T13:17:47.055Z,8.60
2019-03-10T13:23:51.828Z,9.00
2019-03-10T13:29:56.449Z,10.10
2019-03-10T13:36:01.090Z,10.30
2019-03-10T13:42:05.736Z,10.00
2019-03-10T13:48:10.520Z,9.80
2019-03-10T13:54:15.709Z,9.60
2019-03-10T14:00:26.636Z,9.40
2019-03-10T14:06:31.203Z,9.50
2019-03-10T14:12:35.886Z,9.30
2019-03-10T14:18:40.438Z,9.10
2019-03-10T14:24:45.414Z,8.90
2019-03-10T14:30:50.397Z,8.80
2019-03-10T14:36:55.198Z,8.80
2019-03-10T14:42:59.829Z,8.80
2019-03-10T14:49:05.359Z,8.90
2019-03-10T14:55:14.981Z,9.20
2019-03-10T15:01:22.263Z,9.70
2019-03-10T15:07:26.817Z,9.80
2019-03-10T15:13:31.626Z,9.90
2019-03-10T15:19:36.368Z,9.90
2019-03-10T15:25:41.286Z,9.70
2019-03-10T15:31:46.267Z,9.70
2019-03-10T15:37:51.096Z,9.90
2019-03-10T15:43:55.796Z,9.90
2019-03-10T15:50:00.392Z,9.80
2019-03-10T15:56:05.189Z,9.70
2019-03-10T16:02:09.823Z,10.40
2019-03-10T16:08:14.723Z,10.10
2019-03-10T16:14:21.103Z,9.90
2019-03-10T16:20:25.841Z,9.80
2019-03-10T16:26:30.571Z,10.20
2019-03-10T16:32:35.210Z,10.20
2019-03-10T16:38:39.829Z,9.60
2019-03-10T16:44:44.603Z,9.10
2019-03-10T16:50:49.594Z,8.90
2019-03-10T16:56:54.315Z,8.70
2019-03-10T17:02:58.868Z,8.60
2019-03-10T17:09:06.591Z,8.50
2019-03-10T17:15:15.376Z,8.40
2019-03-10T17:21:20.749Z,8.20
2019-03-10T17:27:25.526Z,8.10
2019-03-10T17:33:30.069Z,8.10
2019-03-10T17:39:34.641Z,8.10
2019-03-10T17:45:39.507Z,8.00
2019-03-10T17:51:44.211Z,7.90
2019-03-10T17:57:49.224Z,7.80
2019-03-10T18:03:53.939Z,7.50
2019-03-10T18:09:58.602Z,7.10
2019-03-10T18:16:03.223Z,6.10
2019-03-10T18:22:08.030Z,4.80
2019-03-10T18:28:12.748Z,3.60
2019-03-10T18:34:18.350Z,2.70
2019-03-10T18:40:27.172Z,2.40
2019-03-10T18:46:31.762Z,2.10
2019-03-10T18:52:36.313Z,1.80
2019-03-10T18:58:41.163Z,1.60
2019-03-10T19:04:46.281Z,1.40
2019-03-10T19:10:51.154Z,1.30
2019-03-10T19:16:55.785Z,1.30
2019-03-10T19:23:00.461Z,1.40
2019-03-10T19:29:05.231Z,1.40
2019-03-10T19:35:11.721Z,1.40
2019-03-10T19:41:18.071Z,1.50
2019-03-10T19:47:22.789Z,1.60
2019-03-10T19:53:27.374Z,1.60
2019-03-10T19:59:31.988Z,1.70
2019-03-10T20:05:36.595Z,1.70
2019-03-10T20:11:41.363Z,1.80
2019-03-10T20:17:47.017Z,1.80
2019-03-10T20:23:51.913Z,1.80
2019-03-10T20:29:56.507Z,1.90
2019-03-10T20:36:01.251Z,1.90
2019-03-10T20:42:06.195Z,1.90
2019-03-10T20:48:10.810Z,1.90
2019-03-10T20:54:15.781Z,2.00
2019-03-10T21:00:23.678Z,2.00
2019-03-10T21:06:28.511Z,2.10
2019-03-10T21:12:39.989Z,2.20
2019-03-10T21:18:39.972Z,2.30
2019-03-10T21:24:44.810Z,2.30
2019-03-10T21:30:49.803Z,2.30
2019-03-10T21:36:54.538Z,2.40
2019-03-10T21:42:59.108Z,2.40
2019-03-10T21:49:03.859Z,2.50
2019-03-10T21:55:13.583Z,2.50
2019-03-10T22:01:18.637Z,2.50
2019-03-10T22:07:23.206Z,2.50
2019-03-10T22:13:27.998Z,2.40
2019-03-10T22:19:33.012Z,2.40
2019-03-10T22:25:37.675Z,2.50
2019-03-10T22:31:42.677Z,2.50
2019-03-10T22:37:48.015Z,2.60
2019-03-10T22:43:53.175Z,2.70
2019-03-10T22:49:57.893Z,2.70
2019-03-10T22:56:02.475Z,2.60
2019-03-10T23:02:07.406Z,2.70
2019-03-10T23:08:12.139Z,2.80
2019-03-10T23:14:18.189Z,2.90
2019-03-10T23:20:22.920Z,2.90
2019-03-10T23:26:27.713Z,3.00
2019-03-10T23:32:32.447Z,3.00
2019-03-10T23:38:37.059Z,3.00
2019-03-10T23:44:41.766Z,2.90
2019-03-10T23:50:46.867Z,2.90
2019-03-10T23:56:51.656Z,3.00
